Private Wetterstation Sandau
Wetterdaten: Sonntag, 24.06.2012
Datum Zeit Temp. A. Feuchte A. Luftdruck Regen Wind Richtung Richtung Taupunkt Windchill
24.06.2012 00:01 15,9 C 64 % 1022,2 hPa 0,0 l/m 0,0 km/h (0 Bft) SW 225 9,1 C 15,9 C
24.06.2012 00:06 15,8 C 65 % 1022,2 hPa 0,0 l/m 0,0 km/h (0 Bft) SW 225 9,2 C 15,8 C
24.06.2012 00:11 15,8 C 66 % 1022,2 hPa 0,0 l/m 0,0 km/h (0 Bft) SW 225 9,5 C 15,8 C
24.06.2012 00:16 15,6 C 66 % 1022,2 hPa 0,0 l/m 0,0 km/h (0 Bft) SW 225 9,3 C 15,6 C
24.06.2012 00:21 15,5 C 65 % 1022,3 hPa 0,0 l/m 0,0 km/h (0 Bft) N-NO 22 8,9 C 15,5 C
24.06.2012 00:26 15,2 C 66 % 1022,3 hPa 0,0 l/m 0,0 km/h (0 Bft) NO 45 8,9 C 15,2 C
24.06.2012 00:31 14,9 C 66 % 1022,2 hPa 0,0 l/m 0,0 km/h (0 Bft) O-NO 67 8,6 C 14,9 C
24.06.2012 00:36 14,9 C 67 % 1022,3 hPa 0,0 l/m 0,0 km/h (0 Bft) O-NO 67 8,8 C 14,9 C
24.06.2012 00:41 14,9 C 68 % 1022,5 hPa 0,0 l/m 0,0 km/h (0 Bft) NO 45 9,0 C 14,9 C
24.06.2012 00:46 14,9 C 68 % 1022,5 hPa 0,0 l/m 0,0 km/h (0 Bft) O-NO 67 9,0 C 14,9 C
24.06.2012 00:51 14,9 C 69 % 1022,4 hPa 0,0 l/m 0,0 km/h (0 Bft) O-NO 67 9,3 C 14,9 C
24.06.2012 00:56 14,9 C 69 % 1022,5 hPa 0,0 l/m 0,0 km/h (0 Bft) O-NO 67 9,3 C 14,9 C
24.06.2012 01:01 14,9 C 69 % 1022,4 hPa 0,0 l/m 0,0 km/h (0 Bft) O-SO 112 9,3 C 14,9 C
24.06.2012 01:06 14,9 C 69 % 1022,3 hPa 0,0 l/m 0,0 km/h (0 Bft) O-SO 112 9,3 C 14,9 C
24.06.2012 01:11 15,0 C 69 % 1022,3 hPa 0,0 l/m 0,0 km/h (0 Bft) SO 135 9,4 C 15,0 C
24.06.2012 01:16 15,0 C 69 % 1022,3 hPa 0,0 l/m 0,0 km/h (0 Bft) SO 135 9,4 C 15,0 C
24.06.2012 01:21 15,1 C 69 % 1022,4 hPa 0,0 l/m 0,0 km/h (0 Bft) SO 135 9,5 C 15,1 C
24.06.2012 01:26 15,1 C 69 % 1022,5 hPa 0,0 l/m 0,0 km/h (0 Bft) SO 135 9,5 C 15,1 C
24.06.2012 01:31 15,2 C 69 % 1022,3 hPa 0,0 l/m 0,0 km/h (0 Bft) SO 135 9,6 C 15,2 C
24.06.2012 01:36 15,2 C 69 % 1022,5 hPa 0,0 l/m 0,0 km/h (0 Bft) S 180 9,6 C 15,2 C
24.06.2012 01:41 15,2 C 69 % 1022,4 hPa 0,0 l/m 0,0 km/h (0 Bft) S-SO 157 9,6 C 15,2 C
24.06.2012 01:46 15,2 C 69 % 1022,3 hPa 0,0 l/m 0,0 km/h (0 Bft) S-SO 157 9,6 C 15,2 C
24.06.2012 01:51 15,1 C 69 % 1022,2 hPa 0,0 l/m 0,0 km/h (0 Bft) SO 135 9,5 C 15,1 C
24.06.2012 01:56 15,0 C 68 % 1022,1 hPa 0,0 l/m 0,0 km/h (0 Bft) S 180 9,1 C 15,0 C
24.06.2012 02:01 14,9 C 68 % 1021,9 hPa 0,0 l/m 0,0 km/h (0 Bft) S 180 9,0 C 14,9 C
24.06.2012 02:06 14,9 C 68 % 1021,9 hPa 0,0 l/m 0,0 km/h (0 Bft) S-SO 157 9,0 C 14,9 C
24.06.2012 02:11 14,9 C 69 % 1022,0 hPa 0,0 l/m 0,0 km/h (0 Bft) S-SO 157 9,3 C 14,9 C
24.06.2012 02:16 14,9 C 68 % 1022,0 hPa 0,0 l/m 0,0 km/h (0 Bft) S 180 9,0 C 14,9 C
24.06.2012 02:21 14,9 C 68 % 1021,9 hPa 0,0 l/m 0,0 km/h (0 Bft) S-SW 202 9,0 C 14,9 C
24.06.2012 02:26 14,9 C 69 % 1021,9 hPa 0,0 l/m 0,0 km/h (0 Bft) S 180 9,3 C 14,9 C
24.06.2012 02:31 14,9 C 69 % 1021,9 hPa 0,0 l/m 0,0 km/h (0 Bft) S-SO 157 9,3 C 14,9 C
24.06.2012 02:36 14,9 C 69 % 1021,8 hPa 0,0 l/m 0,0 km/h (0 Bft) S-SW 202 9,3 C 14,9 C
24.06.2012 02:41 14,9 C 69 % 1021,6 hPa 0,0 l/m 0,0 km/h (0 Bft) S 180 9,3 C 14,9 C
24.06.2012 02:46 14,9 C 69 % 1021,6 hPa 0,0 l/m 0,0 km/h (0 Bft) S-SO 157 9,3 C 14,9 C
24.06.2012 02:51 14,9 C 69 % 1021,5 hPa 0,0 l/m 0,0 km/h (0 Bft) S-SO 157 9,3 C 14,9 C
24.06.2012 02:56 14,8 C 69 % 1021,6 hPa 0,0 l/m 0,0 km/h (0 Bft) SO 135 9,2 C 14,8 C
24.06.2012 03:01 14,8 C 69 % 1021,6 hPa 0,0 l/m 0,0 km/h (0 Bft) S-SO 157 9,2 C 14,8 C
24.06.2012 03:06 14,6 C 69 % 1021,7 hPa 0,0 l/m 0,0 km/h (0 Bft) S-SO 157 9,0 C 14,6 C
24.06.2012 03:11 14,6 C 69 % 1021,7 hPa 0,0 l/m 0,0 km/h (0 Bft) S-SO 157 9,0 C 14,6 C
24.06.2012 03:16 14,6 C 69 % 1021,5 hPa 0,0 l/m 0,0 km/h (0 Bft) S 180 9,0 C 14,6 C
24.06.2012 03:21 14,6 C 70 % 1021,6 hPa 0,0 l/m 0,0 km/h (0 Bft) SO 135 9,2 C 14,6 C
24.06.2012 03:26 14,6 C 70 % 1021,5 hPa 0,0 l/m 0,0 km/h (0 Bft) S 180 9,2 C 14,6 C
24.06.2012 03:31 14,6 C 70 % 1021,6 hPa 0,0 l/m 0,0 km/h (0 Bft) S-SO 157 9,2 C 14,6 C
24.06.2012 03:36 14,6 C 70 % 1021,6 hPa 0,0 l/m 0,0 km/h (0 Bft) S-SO 157 9,2 C 14,6 C
24.06.2012 03:41 14,6 C 70 % 1021,5 hPa 0,0 l/m 0,0 km/h (0 Bft) S-SO 157 9,2 C 14,6 C
24.06.2012 03:46 14,6 C 70 % 1021,3 hPa 0,0 l/m 0,0 km/h (0 Bft) S 180 9,2 C 14,6 C
24.06.2012 03:51 14,6 C 70 % 1021,3 hPa 0,0 l/m 0,0 km/h (0 Bft) SO 135 9,2 C 14,6 C
24.06.2012 03:56 14,7 C 70 % 1021,2 hPa 0,0 l/m 0,0 km/h (0 Bft) S-SO 157 9,3 C 14,7 C
24.06.2012 04:01 14,7 C 71 % 1021,1 hPa 0,0 l/m 0,0 km/h (0 Bft) S-SO 157 9,5 C 14,7 C
24.06.2012 04:06 14,7 C 71 % 1021,0 hPa 0,0 l/m 0,0 km/h (0 Bft) SO 135 9,5 C 14,7 C
24.06.2012 04:11 14,7 C 71 % 1021,1 hPa 0,0 l/m 0,0 km/h (0 Bft) S-SO 157 9,5 C 14,7 C
24.06.2012 04:16 14,7 C 71 % 1021,0 hPa 0,0 l/m 0,0 km/h (0 Bft) SO 135 9,5 C 14,7 C
24.06.2012 04:21 14,7 C 71 % 1020,9 hPa 0,0 l/m 0,0 km/h (0 Bft) SO 135 9,5 C 14,7 C
24.06.2012 04:26 14,7 C 71 % 1020,6 hPa 0,0 l/m 0,0 km/h (0 Bft) SO 135 9,5 C 14,7 C
24.06.2012 04:31 14,6 C 72 % 1020,7 hPa 0,0 l/m 0,0 km/h (0 Bft) S-SO 157 9,6 C 14,6 C
24.06.2012 04:36 14,6 C 72 % 1020,6 hPa 0,0 l/m 0,0 km/h (0 Bft) SO 135 9,6 C 14,6 C
24.06.2012 04:41 14,6 C 72 % 1020,5 hPa 0,0 l/m 0,0 km/h (0 Bft) S-SO 157 9,6 C 14,6 C
24.06.2012 04:46 14,6 C 72 % 1020,4 hPa 0,0 l/m 0,0 km/h (0 Bft) S-SO 157 9,6 C 14,6 C
24.06.2012 04:51 14,6 C 72 % 1020,5 hPa 0,0 l/m 0,0 km/h (0 Bft) SO 135 9,6 C 14,6 C
24.06.2012 04:56 14,5 C 72 % 1020,5 hPa 0,0 l/m 0,0 km/h (0 Bft) SO 135 9,5 C 14,5 C
24.06.2012 05:01 14,4 C 72 % 1020,5 hPa 0,0 l/m 0,0 km/h (0 Bft) SO 135 9,4 C 14,4 C
24.06.2012 05:06 14,4 C 72 % 1020,4 hPa 0,0 l/m 0,0 km/h (0 Bft) SO 135 9,4 C 14,4 C
24.06.2012 05:11 14,4 C 72 % 1020,3 hPa 0,0 l/m 0,0 km/h (0 Bft) SO 135 9,4 C 14,4 C
24.06.2012 05:16 14,4 C 72 % 1020,3 hPa 0,0 l/m 0,0 km/h (0 Bft) SO 135 9,4 C 14,4 C
24.06.2012 05:21 14,4 C 72 % 1020,4 hPa 0,0 l/m 0,0 km/h (0 Bft) S-SO 157 9,4 C 14,4 C
24.06.2012 05:26 14,4 C 72 % 1020,4 hPa 0,0 l/m 0,0 km/h (0 Bft) SO 135 9,4 C 14,4 C
24.06.2012 05:31 14,4 C 72 % 1020,4 hPa 0,0 l/m 0,0 km/h (0 Bft) SO 135 9,4 C 14,4 C
24.06.2012 05:36 14,4 C 72 % 1020,3 hPa 0,0 l/m 0,0 km/h (0 Bft) O-SO 112 9,4 C 14,4 C
24.06.2012 05:41 14,3 C 72 % 1020,4 hPa 0,0 l/m 0,0 km/h (0 Bft) O 90 9,3 C 14,3 C
24.06.2012 05:46 14,2 C 73 % 1020,3 hPa 0,0 l/m 0,0 km/h (0 Bft) O-SO 112 9,4 C 14,2 C
24.06.2012 05:51 14,1 C 73 % 1020,2 hPa 0,0 l/m 0,0 km/h (0 Bft) O 90 9,3 C 14,1 C
24.06.2012 05:56 14,0 C 74 % 1020,1 hPa 0,0 l/m 0,0 km/h (0 Bft) O-SO 112 9,4 C 14,0 C
24.06.2012 06:01 13,9 C 74 % 1020,2 hPa 0,0 l/m 0,0 km/h (0 Bft) SO 135 9,3 C 13,9 C
24.06.2012 06:06 14,0 C 74 % 1020,1 hPa 0,0 l/m 0,0 km/h (0 Bft) SO 135 9,4 C 14,0 C
24.06.2012 06:11 14,1 C 74 % 1020,0 hPa 0,0 l/m 0,0 km/h (0 Bft) SO 135 9,5 C 14,1 C
24.06.2012 06:16 14,1 C 74 % 1019,9 hPa 0,0 l/m 0,0 km/h (0 Bft) SO 135 9,5 C 14,1 C
24.06.2012 06:21 14,1 C 75 % 1019,7 hPa 0,0 l/m 0,0 km/h (0 Bft) SO 135 9,7 C 14,1 C
24.06.2012 06:26 14,2 C 75 % 1019,8 hPa 0,0 l/m 0,0 km/h (0 Bft) SO 135 9,8 C 14,2 C
24.06.2012 06:31 14,3 C 75 % 1019,6 hPa 0,0 l/m 0,0 km/h (0 Bft) SO 135 9,9 C 14,3 C
24.06.2012 06:36 14,4 C 75 % 1019,6 hPa 0,0 l/m 0,0 km/h (0 Bft) SO 135 10,0 C 14,4 C
24.06.2012 06:41 14,4 C 75 % 1019,6 hPa 0,0 l/m 0,0 km/h (0 Bft) O-SO 112 10,0 C 14,4 C
24.06.2012 06:46 14,6 C 75 % 1019,4 hPa 0,0 l/m 0,0 km/h (0 Bft) SO 135 10,2 C 14,6 C
24.06.2012 06:51 14,8 C 76 % 1019,3 hPa 0,0 l/m 0,0 km/h (0 Bft) SO 135 10,6 C 14,8 C
24.06.2012 06:56 14,8 C 76 % 1019,3 hPa 0,0 l/m 0,0 km/h (0 Bft) O-SO 112 10,6 C 14,8 C
24.06.2012 07:01 14,9 C 76 % 1019,2 hPa 0,0 l/m 0,0 km/h (0 Bft) O-SO 112 10,7 C 14,9 C
24.06.2012 07:06 14,9 C 76 % 1019,1 hPa 0,0 l/m 0,0 km/h (0 Bft) SO 135 10,7 C 14,9 C
24.06.2012 07:11 14,9 C 77 % 1019,0 hPa 0,0 l/m 0,0 km/h (0 Bft) O-SO 112 10,9 C 14,9 C
24.06.2012 07:16 14,9 C 77 % 1019,1 hPa 0,0 l/m 0,0 km/h (0 Bft) O-SO 112 10,9 C 14,9 C
24.06.2012 07:21 15,1 C 77 % 1018,9 hPa 0,0 l/m 0,0 km/h (0 Bft) S-SO 157 11,1 C 15,1 C
24.06.2012 07:26 15,2 C 77 % 1019,0 hPa 0,0 l/m 0,0 km/h (0 Bft) SO 135 11,2 C 15,2 C
24.06.2012 07:31 15,3 C 77 % 1018,9 hPa 0,0 l/m 0,0 km/h (0 Bft) SO 135 11,3 C 15,3 C
24.06.2012 07:36 15,4 C 77 % 1018,8 hPa 0,0 l/m 0,0 km/h (0 Bft) SO 135 11,4 C 15,4 C
24.06.2012 07:41 15,4 C 77 % 1018,7 hPa 0,0 l/m 0,0 km/h (0 Bft) O 90 11,4 C 15,4 C
24.06.2012 07:46 15,4 C 78 % 1018,7 hPa 0,0 l/m 0,0 km/h (0 Bft) O-SO 112 11,6 C 15,4 C
24.06.2012 07:51 15,4 C 77 % 1018,6 hPa 0,0 l/m 0,0 km/h (0 Bft) O-SO 112 11,4 C 15,4 C
24.06.2012 07:56 15,6 C 77 % 1018,4 hPa 0,0 l/m 0,0 km/h (0 Bft) O-SO 112 11,6 C 15,6 C
24.06.2012 08:01 15,8 C 77 % 1018,2 hPa 0,0 l/m 0,0 km/h (0 Bft) SO 135 11,8 C 15,8 C
24.06.2012 08:06 15,9 C 76 % 1018,1 hPa 0,0 l/m 0,0 km/h (0 Bft) SO 135 11,7 C 15,9 C
24.06.2012 08:11 16,1 C 76 % 1018,1 hPa 0,0 l/m 0,0 km/h (0 Bft) SO 135 11,9 C 16,1 C
24.06.2012 08:16 16,4 C 76 % 1017,9 hPa 0,0 l/m 0,0 km/h (0 Bft) O 90 12,2 C 16,4 C
24.06.2012 08:21 16,7 C 74 % 1017,8 hPa 0,0 l/m 0,0 km/h (0 Bft) SO 135 12,0 C 16,7 C
24.06.2012 08:26 16,9 C 74 % 1017,8 hPa 0,0 l/m 0,0 km/h (0 Bft) O 90 12,2 C 16,9 C
24.06.2012 08:31 17,2 C 73 % 1017,6 hPa 0,0 l/m 0,0 km/h (0 Bft) O-SO 112 12,3 C 17,2 C
24.06.2012 08:36 17,5 C 72 % 1017,5 hPa 0,0 l/m 0,0 km/h (0 Bft) O-SO 112 12,4 C 17,5 C
24.06.2012 08:41 17,9 C 71 % 1017,4 hPa 0,0 l/m 0,0 km/h (0 Bft) O 90 12,6 C 17,9 C
24.06.2012 08:46 18,2 C 69 % 1017,5 hPa 0,0 l/m 0,0 km/h (0 Bft) O 90 12,4 C 18,2 C
24.06.2012 08:51 18,3 C 69 % 1017,5 hPa 0,0 l/m 0,0 km/h (0 Bft) S 180 12,5 C 18,3 C
24.06.2012 08:56 18,4 C 68 % 1017,4 hPa 0,0 l/m 0,0 km/h (0 Bft) SO 135 12,4 C 18,4 C
24.06.2012 09:01 18,5 C 68 % 1017,2 hPa 0,0 l/m 0,0 km/h (0 Bft) SO 135 12,5 C 18,5 C
24.06.2012 09:06 18,7 C 68 % 1017,1 hPa 0,0 l/m 0,0 km/h (0 Bft) NO 45 12,7 C 18,7 C
24.06.2012 09:11 18,9 C 67 % 1017,0 hPa 0,0 l/m 0,0 km/h (0 Bft) S-SO 157 12,6 C 18,9 C
24.06.2012 09:16 19,2 C 65 % 1017,2 hPa 0,0 l/m 3,6 km/h (1 Bft) S-SO 157 12,5 C 19,2 C
24.06.2012 09:21 19,4 C 64 % 1016,9 hPa 0,0 l/m 0,0 km/h (0 Bft) W-SW 247 12,4 C 19,4 C
24.06.2012 09:26 19,6 C 63 % 1016,6 hPa 0,0 l/m 0,0 km/h (0 Bft) S 180 12,4 C 19,6 C
24.06.2012 09:31 19,8 C 63 % 1016,6 hPa 0,0 l/m 8,6 km/h (2 Bft) S 180 12,5 C 19,8 C
24.06.2012 09:36 19,9 C 62 % 1016,5 hPa 0,0 l/m 11,9 km/h (2 Bft) S-SW 202 12,4 C 19,9 C
24.06.2012 09:41 19,9 C 62 % 1016,4 hPa 0,0 l/m 11,5 km/h (2 Bft) S-SO 157 12,4 C 19,9 C
24.06.2012 09:46 20,0 C 62 % 1016,2 hPa 0,0 l/m 4,7 km/h (1 Bft) S 180 12,5 C 20,0 C
24.06.2012 09:51 19,9 C 62 % 1016,1 hPa 0,0 l/m 2,5 km/h (1 Bft) S 180 12,4 C 19,9 C
24.06.2012 09:56 20,0 C 62 % 1015,8 hPa 0,0 l/m 5,8 km/h (2 Bft) S-SW 202 12,5 C 20,0 C
24.06.2012 10:01 20,2 C 63 % 1015,8 hPa 0,0 l/m 14,4 km/h (3 Bft) S-SW 202 12,9 C 20,2 C
24.06.2012 10:06 20,4 C 62 % 1015,6 hPa 0,0 l/m 9,7 km/h (2 Bft) S 180 12,9 C 20,4 C
24.06.2012 10:11 20,7 C 61 % 1015,6 hPa 0,0 l/m 14,0 km/h (3 Bft) S 180 12,9 C 20,7 C
24.06.2012 10:16 20,8 C 61 % 1015,3 hPa 0,0 l/m 9,4 km/h (2 Bft) S-SW 202 13,0 C 20,8 C
24.06.2012 10:21 20,9 C 60 % 1015,3 hPa 0,0 l/m 20,9 km/h (4 Bft) S 180 12,8 C 20,9 C
24.06.2012 10:26 20,9 C 58 % 1015,3 hPa 0,0 l/m 26,3 km/h (4 Bft) S 180 12,3 C 20,9 C
24.06.2012 10:31 20,9 C 58 % 1015,2 hPa 0,0 l/m 14,4 km/h (3 Bft) S-SO 157 12,3 C 20,9 C
24.06.2012 10:36 21,1 C 58 % 1015,0 hPa 0,0 l/m 14,4 km/h (3 Bft) SW 225 12,5 C 21,1 C
24.06.2012 10:41 21,3 C 58 % 1014,9 hPa 0,0 l/m 22,3 km/h (4 Bft) S-SO 157 12,7 C 21,3 C
24.06.2012 10:46 21,6 C 57 % 1014,8 hPa 0,0 l/m 20,5 km/h (4 Bft) S-SO 157 12,7 C 21,6 C
24.06.2012 10:51 21,9 C 56 % 1014,7 hPa 0,0 l/m 8,6 km/h (2 Bft) S-SW 202 12,7 C 21,9 C
24.06.2012 10:56 22,2 C 55 % 1014,5 hPa 0,0 l/m 9,7 km/h (2 Bft) S-SW 202 12,7 C 22,2 C
24.06.2012 11:01 22,4 C 53 % 1014,5 hPa 0,0 l/m 18,0 km/h (3 Bft) S 180 12,3 C 22,4 C
24.06.2012 11:06 22,3 C 53 % 1014,3 hPa 0,0 l/m 8,3 km/h (2 Bft) S-SW 202 12,2 C 22,3 C
24.06.2012 11:11 22,1 C 52 % 1014,3 hPa 0,0 l/m 11,5 km/h (2 Bft) S 180 11,8 C 22,1 C
24.06.2012 11:16 21,9 C 53 % 1014,2 hPa 0,0 l/m 15,8 km/h (3 Bft) W 270 11,9 C 21,9 C
24.06.2012 11:21 21,9 C 54 % 1014,1 hPa 0,0 l/m 14,4 km/h (3 Bft) S-SW 202 12,2 C 21,9 C
24.06.2012 11:26 21,8 C 52 % 1014,1 hPa 0,0 l/m 12,2 km/h (2 Bft) S-SO 157 11,5 C 21,8 C
24.06.2012 11:31 21,8 C 52 % 1013,9 hPa 0,0 l/m 16,2 km/h (3 Bft) S-SW 202 11,5 C 21,8 C
24.06.2012 11:36 21,8 C 51 % 1013,8 hPa 0,0 l/m 5,8 km/h (2 Bft) S 180 11,2 C 21,8 C
24.06.2012 11:41 21,8 C 52 % 1013,9 hPa 0,0 l/m 23,4 km/h (4 Bft) S-SW 202 11,5 C 21,8 C
24.06.2012 11:46 21,9 C 52 % 1013,8 hPa 0,0 l/m 8,3 km/h (2 Bft) S-SW 202 11,6 C 21,9 C
24.06.2012 11:51 21,8 C 50 % 1013,8 hPa 0,0 l/m 9,7 km/h (2 Bft) S-SW 202 10,9 C 21,8 C
24.06.2012 11:56 21,8 C 51 % 1013,7 hPa 0,0 l/m 32,0 km/h (5 Bft) S 180 11,2 C 21,8 C
24.06.2012 12:01 21,6 C 51 % 1013,6 hPa 0,0 l/m 9,4 km/h (2 Bft) S-SW 202 11,0 C 21,6 C
24.06.2012 12:06 21,6 C 51 % 1013,5 hPa 0,0 l/m 12,6 km/h (3 Bft) S 180 11,0 C 21,6 C
24.06.2012 12:11 21,6 C 52 % 1013,5 hPa 0,0 l/m 16,6 km/h (3 Bft) S-SO 157 11,3 C 21,6 C
24.06.2012 12:16 21,8 C 52 % 1013,3 hPa 0,0 l/m 13,7 km/h (3 Bft) SW 225 11,5 C 21,8 C
24.06.2012 12:21 21,8 C 52 % 1013,2 hPa 0,0 l/m 16,6 km/h (3 Bft) S-SW 202 11,5 C 21,8 C
24.06.2012 12:26 21,7 C 52 % 1013,1 hPa 0,0 l/m 2,9 km/h (1 Bft) S-SW 202 11,4 C 21,7 C
24.06.2012 12:31 21,6 C 52 % 1013,2 hPa 0,0 l/m 7,6 km/h (2 Bft) S 180 11,3 C 21,6 C
24.06.2012 12:36 21,6 C 52 % 1013,1 hPa 0,0 l/m 14,8 km/h (3 Bft) S-SW 202 11,3 C 21,6 C
24.06.2012 12:41 21,6 C 52 % 1012,9 hPa 0,0 l/m 8,3 km/h (2 Bft) S-SW 202 11,3 C 21,6 C
24.06.2012 12:46 21,6 C 52 % 1013,0 hPa 0,0 l/m 11,9 km/h (2 Bft) W-SW 247 11,3 C 21,6 C
24.06.2012 12:51 21,5 C 54 % 1013,0 hPa 0,0 l/m 11,2 km/h (2 Bft) SW 225 11,8 C 21,5 C
24.06.2012 12:56 21,4 C 55 % 1012,9 hPa 0,0 l/m 10,4 km/h (2 Bft) S-SW 202 12,0 C 21,4 C
24.06.2012 13:01 21,5 C 55 % 1012,8 hPa 0,0 l/m 18,4 km/h (3 Bft) SW 225 12,1 C 21,5 C
24.06.2012 13:06 21,5 C 53 % 1012,8 hPa 0,0 l/m 19,8 km/h (3 Bft) S-SW 202 11,5 C 21,5 C
24.06.2012 13:11 21,5 C 53 % 1012,6 hPa 0,0 l/m 14,8 km/h (3 Bft) SW 225 11,5 C 21,5 C
24.06.2012 13:16 21,4 C 54 % 1012,4 hPa 0,0 l/m 8,3 km/h (2 Bft) S-SW 202 11,7 C 21,4 C
24.06.2012 13:21 21,4 C 54 % 1012,4 hPa 0,0 l/m 16,2 km/h (3 Bft) SW 225 11,7 C 21,4 C
24.06.2012 13:26 21,3 C 54 % 1012,1 hPa 0,0 l/m 10,8 km/h (2 Bft) SW 225 11,6 C 21,3 C
24.06.2012 13:31 21,4 C 53 % 1012,0 hPa 0,0 l/m 14,4 km/h (3 Bft) SW 225 11,4 C 21,4 C
24.06.2012 13:36 21,6 C 53 % 1011,8 hPa 0,0 l/m 18,0 km/h (3 Bft) SW 225 11,6 C 21,6 C
24.06.2012 13:41 21,5 C 52 % 1011,6 hPa 0,0 l/m 13,3 km/h (3 Bft) S-SW 202 11,2 C 21,5 C
24.06.2012 13:46 21,6 C 51 % 1011,6 hPa 0,0 l/m 14,4 km/h (3 Bft) S-SO 157 11,0 C 21,6 C
24.06.2012 13:51 21,8 C 50 % 1011,5 hPa 0,0 l/m 19,4 km/h (3 Bft) S 180 10,9 C 21,8 C
24.06.2012 13:56 21,9 C 50 % 1011,4 hPa 0,0 l/m 12,2 km/h (2 Bft) NW 315 11,0 C 21,9 C
24.06.2012 14:01 22,0 C 50 % 1011,1 hPa 0,0 l/m 8,3 km/h (2 Bft) SW 225 11,1 C 22,0 C
24.06.2012 14:06 21,9 C 50 % 1011,2 hPa 0,0 l/m 14,8 km/h (3 Bft) S-SW 202 11,0 C 21,9 C
24.06.2012 14:11 21,8 C 51 % 1011,1 hPa 0,0 l/m 15,5 km/h (3 Bft) S-SW 202 11,2 C 21,8 C
24.06.2012 14:16 21,9 C 50 % 1011,0 hPa 0,0 l/m 29,5 km/h (5 Bft) SW 225 11,0 C 21,9 C
24.06.2012 14:21 21,8 C 48 % 1011,0 hPa 0,0 l/m 18,0 km/h (3 Bft) S 180 10,3 C 21,8 C
24.06.2012 14:26 21,9 C 48 % 1010,9 hPa 0,0 l/m 29,2 km/h (5 Bft) S 180 10,4 C 21,9 C
24.06.2012 14:31 22,1 C 48 % 1010,9 hPa 0,0 l/m 15,1 km/h (3 Bft) W 270 10,6 C 22,1 C
24.06.2012 14:36 22,1 C 49 % 1010,7 hPa 0,0 l/m 11,2 km/h (2 Bft) W-SW 247 10,9 C 22,1 C
24.06.2012 14:41 22,1 C 48 % 1010,9 hPa 0,0 l/m 18,7 km/h (3 Bft) SW 225 10,6 C 22,1 C
24.06.2012 14:46 22,1 C 49 % 1010,6 hPa 0,0 l/m 9,0 km/h (2 Bft) W-SW 247 10,9 C 22,1 C
24.06.2012 14:51 22,1 C 50 % 1010,5 hPa 0,0 l/m 13,7 km/h (3 Bft) S 180 11,2 C 22,1 C
24.06.2012 14:56 22,1 C 49 % 1010,4 hPa 0,0 l/m 7,6 km/h (2 Bft) S-SW 202 10,9 C 22,1 C
24.06.2012 15:01 21,9 C 50 % 1010,4 hPa 0,0 l/m 10,4 km/h (2 Bft) SO 135 11,0 C 21,9 C
24.06.2012 15:06 21,9 C 50 % 1010,1 hPa 0,0 l/m 10,4 km/h (2 Bft) W-SW 247 11,0 C 21,9 C
24.06.2012 15:11 21,8 C 50 % 1010,2 hPa 0,0 l/m 7,6 km/h (2 Bft) W-SW 247 10,9 C 21,8 C
24.06.2012 15:16 21,8 C 50 % 1010,1 hPa 0,0 l/m 15,1 km/h (3 Bft) S-SW 202 10,9 C 21,8 C
24.06.2012 15:21 21,6 C 51 % 1009,9 hPa 0,0 l/m 19,8 km/h (3 Bft) SW 225 11,0 C 21,6 C
24.06.2012 15:26 21,6 C 54 % 1009,8 hPa 0,0 l/m 14,0 km/h (3 Bft) S-SW 202 11,9 C 21,6 C
24.06.2012 15:31 21,3 C 55 % 1009,7 hPa 0,0 l/m 7,6 km/h (2 Bft) SW 225 11,9 C 21,3 C
24.06.2012 15:36 21,3 C 56 % 1009,6 hPa 0,0 l/m 7,6 km/h (2 Bft) S 180 12,2 C 21,3 C
24.06.2012 15:41 21,3 C 56 % 1009,5 hPa 0,0 l/m 9,7 km/h (2 Bft) SW 225 12,2 C 21,3 C
24.06.2012 15:46 21,4 C 56 % 1009,4 hPa 0,0 l/m 6,5 km/h (2 Bft) SW 225 12,3 C 21,4 C
24.06.2012 15:51 21,6 C 55 % 1009,3 hPa 0,0 l/m 14,4 km/h (3 Bft) S 180 12,2 C 21,6 C
24.06.2012 15:56 21,5 C 54 % 1009,3 hPa 0,0 l/m 6,1 km/h (2 Bft) S-SW 202 11,8 C 21,5 C
24.06.2012 16:01 21,5 C 54 % 1009,2 hPa 0,0 l/m 9,4 km/h (2 Bft) S-SW 202 11,8 C 21,5 C
24.06.2012 16:06 21,4 C 54 % 1009,0 hPa 0,0 l/m 7,2 km/h (2 Bft) S-SW 202 11,7 C 21,4 C
24.06.2012 16:11 21,3 C 57 % 1008,9 hPa 0,0 l/m 4,3 km/h (1 Bft) S-SW 202 12,4 C 21,3 C
24.06.2012 16:16 21,1 C 59 % 1008,8 hPa 0,0 l/m 13,0 km/h (3 Bft) SW 225 12,8 C 21,1 C
24.06.2012 16:21 20,8 C 60 % 1008,7 hPa 0,0 l/m 6,5 km/h (2 Bft) SW 225 12,7 C 20,8 C
24.06.2012 16:26 20,6 C 62 % 1008,5 hPa 0,0 l/m 7,9 km/h (2 Bft) SW 225 13,1 C 20,6 C
24.06.2012 16:31 20,4 C 63 % 1008,5 hPa 0,0 l/m 9,4 km/h (2 Bft) SW 225 13,1 C 20,4 C
24.06.2012 16:36 20,3 C 64 % 1008,3 hPa 0,0 l/m 2,9 km/h (1 Bft) S-SW 202 13,3 C 20,3 C
24.06.2012 16:41 20,2 C 65 % 1008,2 hPa 0,0 l/m 4,0 km/h (1 Bft) S-SO 157 13,4 C 20,2 C
24.06.2012 16:46 20,2 C 66 % 1008,1 hPa 0,0 l/m 8,3 km/h (2 Bft) W-SW 247 13,6 C 20,2 C
24.06.2012 16:51 20,1 C 66 % 1008,1 hPa 0,0 l/m 4,3 km/h (1 Bft) SW 225 13,5 C 20,1 C
24.06.2012 16:56 20,1 C 66 % 1008,0 hPa 0,0 l/m 3,6 km/h (1 Bft) S-SW 202 13,5 C 20,1 C
24.06.2012 17:01 20,1 C 67 % 1007,8 hPa 0,0 l/m 9,0 km/h (2 Bft) S-SO 157 13,8 C 20,1 C
24.06.2012 17:06 20,1 C 67 % 1007,8 hPa 0,0 l/m 12,2 km/h (2 Bft) S-SW 202 13,8 C 20,1 C
24.06.2012 17:11 20,1 C 67 % 1007,7 hPa 0,0 l/m 4,7 km/h (1 Bft) S-SO 157 13,8 C 20,1 C
24.06.2012 17:16 20,0 C 68 % 1007,7 hPa 0,0 l/m 3,6 km/h (1 Bft) S-SW 202 13,9 C 20,0 C
24.06.2012 17:21 19,9 C 68 % 1007,5 hPa 0,0 l/m 3,2 km/h (1 Bft) S-SO 157 13,8 C 19,9 C
24.06.2012 17:26 19,9 C 68 % 1007,4 hPa 0,0 l/m 7,9 km/h (2 Bft) S-SO 157 13,8 C 19,9 C
24.06.2012 17:31 19,9 C 68 % 1007,6 hPa 0,5 l/m 13,7 km/h (3 Bft) S-SW 202 13,8 C 19,9 C
24.06.2012 17:36 19,8 C 68 % 1007,6 hPa 0,0 l/m 9,0 km/h (2 Bft) S-SW 202 13,7 C 19,8 C
24.06.2012 17:41 19,6 C 69 % 1007,8 hPa 0,0 l/m 5,4 km/h (1 Bft) W-SW 247 13,8 C 19,6 C
24.06.2012 17:46 19,5 C 69 % 1007,8 hPa 0,0 l/m 9,0 km/h (2 Bft) SW 225 13,7 C 19,5 C
24.06.2012 17:51 19,3 C 71 % 1007,7 hPa 0,5 l/m 2,9 km/h (1 Bft) SW 225 13,9 C 19,3 C
24.06.2012 17:56 19,2 C 72 % 1007,7 hPa 0,0 l/m 9,7 km/h (2 Bft) W-SW 247 14,0 C 19,2 C
24.06.2012 18:01 19,0 C 72 % 1007,7 hPa 0,0 l/m 11,2 km/h (2 Bft) W-SW 247 13,8 C 19,0 C
24.06.2012 18:06 18,9 C 72 % 1007,5 hPa 0,0 l/m 5,4 km/h (1 Bft) SW 225 13,7 C 18,9 C
24.06.2012 18:11 18,7 C 73 % 1007,6 hPa 0,5 l/m 11,9 km/h (2 Bft) S 180 13,8 C 18,7 C
24.06.2012 18:16 18,6 C 74 % 1007,6 hPa 0,0 l/m 13,3 km/h (3 Bft) SW 225 13,9 C 18,6 C
24.06.2012 18:21 18,4 C 74 % 1007,6 hPa 0,0 l/m 6,8 km/h (2 Bft) S-SW 202 13,7 C 18,4 C
24.06.2012 18:26 18,4 C 75 % 1007,4 hPa 0,0 l/m 5,0 km/h (1 Bft) S-SW 202 13,9 C 18,4 C
24.06.2012 18:31 18,3 C 75 % 1007,5 hPa 0,0 l/m 4,3 km/h (1 Bft) W 270 13,8 C 18,3 C
24.06.2012 18:36 18,1 C 76 % 1007,6 hPa 0,5 l/m 9,4 km/h (2 Bft) W-NW 292 13,8 C 18,1 C
24.06.2012 18:41 17,9 C 77 % 1007,5 hPa 0,0 l/m 14,0 km/h (3 Bft) SW 225 13,8 C 17,9 C
24.06.2012 18:46 17,8 C 78 % 1007,6 hPa 0,0 l/m 16,9 km/h (3 Bft) W-SW 247 13,9 C 17,8 C
24.06.2012 18:51 17,8 C 78 % 1007,4 hPa 0,0 l/m 6,1 km/h (2 Bft) W 270 13,9 C 17,8 C
24.06.2012 18:56 17,6 C 78 % 1007,2 hPa 0,5 l/m 18,0 km/h (3 Bft) SW 225 13,7 C 17,6 C
24.06.2012 19:01 17,5 C 78 % 1007,1 hPa 0,0 l/m 13,0 km/h (3 Bft) S-SW 202 13,6 C 17,5 C
24.06.2012 19:06 17,4 C 78 % 1007,1 hPa 0,0 l/m 9,0 km/h (2 Bft) S-SO 157 13,5 C 17,4 C
24.06.2012 19:11 17,3 C 79 % 1007,0 hPa 0,0 l/m 8,3 km/h (2 Bft) S-SW 202 13,6 C 17,3 C
24.06.2012 19:16 17,3 C 79 % 1007,0 hPa 0,0 l/m 8,6 km/h (2 Bft) S-SO 157 13,6 C 17,3 C
24.06.2012 19:21 17,2 C 79 % 1006,8 hPa 0,0 l/m 7,2 km/h (2 Bft) S-SW 202 13,5 C 17,2 C
24.06.2012 19:26 17,2 C 80 % 1006,8 hPa 0,0 l/m 10,4 km/h (2 Bft) S-SO 157 13,7 C 17,2 C
24.06.2012 19:31 17,1 C 80 % 1006,9 hPa 0,0 l/m 6,1 km/h (2 Bft) SW 225 13,6 C 17,1 C
24.06.2012 19:36 16,9 C 80 % 1007,5 hPa 2,6 l/m 18,7 km/h (3 Bft) W-NW 292 13,4 C 16,9 C
24.06.2012 19:41 16,5 C 79 % 1007,4 hPa 0,0 l/m 27,4 km/h (4 Bft) W 270 12,8 C 16,5 C
24.06.2012 19:46 16,1 C 78 % 1007,5 hPa 0,0 l/m 14,8 km/h (3 Bft) W-SW 247 12,3 C 16,1 C
24.06.2012 19:51 15,8 C 78 % 1007,5 hPa 0,0 l/m 10,1 km/h (2 Bft) W-NW 292 12,0 C 15,8 C
24.06.2012 19:56 15,6 C 78 % 1007,5 hPa 0,0 l/m 12,2 km/h (2 Bft) S-SW 202 11,8 C 15,6 C
24.06.2012 20:01 15,4 C 78 % 1007,3 hPa 0,0 l/m 7,9 km/h (2 Bft) W-SW 247 11,6 C 15,4 C
24.06.2012 20:06 15,3 C 78 % 1007,3 hPa 0,0 l/m 18,4 km/h (3 Bft) W-SW 247 11,5 C 15,3 C
24.06.2012 20:11 15,3 C 78 % 1007,3 hPa 0,0 l/m 4,7 km/h (1 Bft) W 270 11,5 C 15,3 C
24.06.2012 20:16 15,1 C 78 % 1007,5 hPa 0,0 l/m 6,1 km/h (2 Bft) W-SW 247 11,3 C 15,1 C
24.06.2012 20:21 14,9 C 78 % 1007,4 hPa 0,0 l/m 12,2 km/h (2 Bft) W 270 11,1 C 14,9 C
24.06.2012 20:26 14,9 C 78 % 1007,4 hPa 0,0 l/m 7,9 km/h (2 Bft) W 270 11,1 C 14,9 C
24.06.2012 20:31 14,8 C 79 % 1007,3 hPa 0,0 l/m 17,3 km/h (3 Bft) W-SW 247 11,2 C 14,8 C
24.06.2012 20:36 14,8 C 79 % 1007,3 hPa 0,0 l/m 11,9 km/h (2 Bft) NW 315 11,2 C 14,8 C
24.06.2012 20:41 14,7 C 79 % 1007,1 hPa 0,0 l/m 9,7 km/h (2 Bft) W 270 11,1 C 14,7 C
24.06.2012 20:46 14,7 C 79 % 1007,2 hPa 0,0 l/m 9,4 km/h (2 Bft) S-SW 202 11,1 C 14,7 C
24.06.2012 20:51 14,6 C 79 % 1007,1 hPa 0,0 l/m 16,6 km/h (3 Bft) W-SW 247 11,0 C 14,6 C
24.06.2012 20:56 14,6 C 80 % 1006,9 hPa 0,0 l/m 11,5 km/h (2 Bft) SW 225 11,2 C 14,6 C
24.06.2012 21:01 14,6 C 80 % 1007,0 hPa 0,0 l/m 8,3 km/h (2 Bft) S 180 11,2 C 14,6 C
24.06.2012 21:06 14,6 C 80 % 1007,0 hPa 0,0 l/m 4,0 km/h (1 Bft) S-SW 202 11,2 C 14,6 C
24.06.2012 21:11 14,5 C 80 % 1006,7 hPa 0,0 l/m 10,1 km/h (2 Bft) SW 225 11,1 C 14,5 C
24.06.2012 21:16 14,5 C 80 % 1006,8 hPa 0,0 l/m 8,6 km/h (2 Bft) S-SW 202 11,1 C 14,5 C
24.06.2012 21:21 14,5 C 80 % 1006,7 hPa 0,0 l/m 9,7 km/h (2 Bft) S-SW 202 11,1 C 14,5 C
24.06.2012 21:26 14,5 C 80 % 1006,7 hPa 0,0 l/m 10,8 km/h (2 Bft) SW 225 11,1 C 14,5 C
24.06.2012 21:31 14,5 C 80 % 1006,7 hPa 0,0 l/m 14,4 km/h (3 Bft) W 270 11,1 C 14,5 C
24.06.2012 21:36 14,5 C 80 % 1006,7 hPa 0,0 l/m 9,0 km/h (2 Bft) SW 225 11,1 C 14,5 C
24.06.2012 21:41 14,5 C 80 % 1006,6 hPa 0,0 l/m 11,2 km/h (2 Bft) W-SW 247 11,1 C 14,5 C
24.06.2012 21:46 14,5 C 81 % 1006,7 hPa 0,0 l/m 9,4 km/h (2 Bft) SW 225 11,3 C 14,5 C
24.06.2012 21:51 14,5 C 81 % 1006,7 hPa 0,0 l/m 16,6 km/h (3 Bft) S-SW 202 11,3 C 14,5 C
24.06.2012 21:56 14,4 C 81 % 1006,6 hPa 0,0 l/m 9,0 km/h (2 Bft) W-SW 247 11,2 C 14,4 C
24.06.2012 22:01 14,4 C 81 % 1006,5 hPa 0,0 l/m 15,8 km/h (3 Bft) SW 225 11,2 C 14,4 C
24.06.2012 22:06 14,3 C 81 % 1006,5 hPa 0,0 l/m 13,3 km/h (3 Bft) SW 225 11,1 C 14,3 C
24.06.2012 22:11 14,3 C 81 % 1006,6 hPa 0,0 l/m 13,3 km/h (3 Bft) SW 225 11,1 C 14,3 C
24.06.2012 22:16 14,3 C 81 % 1006,3 hPa 0,0 l/m 7,6 km/h (2 Bft) S-SW 202 11,1 C 14,3 C
24.06.2012 22:21 14,2 C 82 % 1006,4 hPa 0,0 l/m 6,1 km/h (2 Bft) S-SW 202 11,2 C 14,2 C
24.06.2012 22:26 14,2 C 82 % 1006,5 hPa 0,0 l/m 9,4 km/h (2 Bft) S 180 11,2 C 14,2 C
24.06.2012 22:31 14,2 C 82 % 1006,4 hPa 0,0 l/m 14,4 km/h (3 Bft) SW 225 11,2 C 14,2 C
24.06.2012 22:36 14,3 C 83 % 1006,3 hPa 0,0 l/m 14,4 km/h (3 Bft) W 270 11,5 C 14,3 C
24.06.2012 22:41 14,3 C 83 % 1006,2 hPa 0,0 l/m 14,8 km/h (3 Bft) W-SW 247 11,5 C 14,3 C
24.06.2012 22:46 14,3 C 83 % 1006,2 hPa 0,0 l/m 16,9 km/h (3 Bft) W 270 11,5 C 14,3 C
24.06.2012 22:51 14,3 C 83 % 1006,1 hPa 0,0 l/m 9,4 km/h (2 Bft) W 270 11,5 C 14,3 C
24.06.2012 22:56 14,4 C 83 % 1006,0 hPa 0,0 l/m 23,4 km/h (4 Bft) S-SW 202 11,5 C 14,4 C
24.06.2012 23:01 14,4 C 83 % 1006,0 hPa 0,0 l/m 5,8 km/h (2 Bft) W-SW 247 11,5 C 14,4 C
24.06.2012 23:06 14,5 C 83 % 1006,2 hPa 0,0 l/m 18,7 km/h (3 Bft) SW 225 11,6 C 14,5 C
24.06.2012 23:11 14,6 C 83 % 1006,2 hPa 0,0 l/m 12,2 km/h (2 Bft) W-SW 247 11,7 C 14,6 C
24.06.2012 23:16 14,6 C 83 % 1006,4 hPa 0,0 l/m 18,4 km/h (3 Bft) S 180 11,7 C 14,6 C
24.06.2012 23:21 14,6 C 82 % 1006,2 hPa 0,0 l/m 28,8 km/h (4 Bft) SW 225 11,6 C 14,6 C
24.06.2012 23:26 14,6 C 81 % 1006,3 hPa 0,0 l/m 27,0 km/h (4 Bft) SW 225 11,4 C 14,6 C
24.06.2012 23:31 14,6 C 81 % 1006,6 hPa 0,0 l/m 20,2 km/h (4 Bft) SW 225 11,4 C 14,6 C
24.06.2012 23:36 14,5 C 80 % 1006,6 hPa 0,0 l/m 12,2 km/h (2 Bft) W-NW 292 11,1 C 14,5 C
24.06.2012 23:41 14,4 C 80 % 1006,8 hPa 0,0 l/m 7,2 km/h (2 Bft) W 270 11,0 C 14,4 C
24.06.2012 23:46 14,4 C 80 % 1006,5 hPa 0,0 l/m 7,2 km/h (2 Bft) SW 225 11,0 C 14,4 C
24.06.2012 23:51 14,4 C 80 % 1006,6 hPa 0,0 l/m 30,2 km/h (5 Bft) W 270 11,0 C 14,4 C
24.06.2012 23:56 14,4 C 80 % 1006,7 hPa 0,0 l/m 10,4 km/h (2 Bft) W 270 11,0 C 14,4 C
_ Min-Zeit 06:01 14:21 22:56 - 00:01 - - 00:31 06:01
Minimum _ 13,9 C 48 % 1006,0 hPa - 0,0 km/h (0 Bft) - - 8,6 C 13,9 C
_ Max-Zeit 11:01 22:36 00:41 19:36 11:56 - - 17:56 11:01
Maximum _ 22,4 C 83 % 1022,5 hPa 2,6 l/m 32,0 km/h
S (5 Bft)
- - 14,0 C 22,4 C
Durchschnitt _ 17,4 C 68 % 1013,9 hPa #5,2 l/m 7,3 km/h (2 Bft) S-SW - 11,2 C 17,4 C
(c) by David Heller